sensor_id;sensor_type;location;lat;lon;timestamp;P1;durP1;ratioP1;P2;durP2;ratioP2
5704;SDS011;2877;48.238;11.160;2022-12-17T00:01:51;23.30;;;12.70;;
5704;SDS011;2877;48.238;11.160;2022-12-17T00:04:35;29.03;;;14.27;;
5704;SDS011;2877;48.238;11.160;2022-12-17T00:07:33;27.97;;;14.17;;
5704;SDS011;2877;48.238;11.160;2022-12-17T00:10:17;26.50;;;14.37;;
5704;SDS011;2877;48.238;11.160;2022-12-17T00:13:01;31.20;;;16.13;;
5704;SDS011;2877;48.238;11.160;2022-12-17T00:15:51;23.30;;;13.00;;
5704;SDS011;2877;48.238;11.160;2022-12-17T00:18:35;24.83;;;13.43;;
5704;SDS011;2877;48.238;11.160;2022-12-17T00:21:20;22.33;;;13.43;;
5704;SDS011;2877;48.238;11.160;2022-12-17T00:24:04;25.27;;;14.77;;
5704;SDS011;2877;48.238;11.160;2022-12-17T00:26:49;28.23;;;14.70;;
5704;SDS011;2877;48.238;11.160;2022-12-17T00:29:32;22.93;;;13.40;;
5704;SDS011;2877;48.238;11.160;2022-12-17T00:32:17;21.63;;;12.90;;
5704;SDS011;2877;48.238;11.160;2022-12-17T00:35:01;25.30;;;14.00;;
5704;SDS011;2877;48.238;11.160;2022-12-17T00:37:46;22.37;;;13.10;;
5704;SDS011;2877;48.238;11.160;2022-12-17T00:40:30;21.40;;;13.20;;
5704;SDS011;2877;48.238;11.160;2022-12-17T00:43:22;23.00;;;13.17;;
5704;SDS011;2877;48.238;11.160;2022-12-17T00:46:06;22.60;;;13.73;;
5704;SDS011;2877;48.238;11.160;2022-12-17T00:48:50;21.70;;;12.60;;
5704;SDS011;2877;48.238;11.160;2022-12-17T00:51:34;20.77;;;13.43;;
5704;SDS011;2877;48.238;11.160;2022-12-17T00:54:18;22.07;;;13.77;;
5704;SDS011;2877;48.238;11.160;2022-12-17T00:57:02;22.60;;;12.40;;
5704;SDS011;2877;48.238;11.160;2022-12-17T00:59:46;26.63;;;12.70;;
5704;SDS011;2877;48.238;11.160;2022-12-17T01:02:30;21.17;;;12.60;;
5704;SDS011;2877;48.238;11.160;2022-12-17T01:05:14;24.43;;;13.70;;
5704;SDS011;2877;48.238;11.160;2022-12-17T01:08:06;23.40;;;13.47;;
5704;SDS011;2877;48.238;11.160;2022-12-17T01:10:51;20.60;;;12.13;;
5704;SDS011;2877;48.238;11.160;2022-12-17T01:13:40;23.27;;;13.13;;
5704;SDS011;2877;48.238;11.160;2022-12-17T01:16:24;23.30;;;13.37;;
5704;SDS011;2877;48.238;11.160;2022-12-17T01:19:08;26.70;;;13.93;;
5704;SDS011;2877;48.238;11.160;2022-12-17T01:21:52;24.50;;;14.27;;
5704;SDS011;2877;48.238;11.160;2022-12-17T01:24:36;23.37;;;12.70;;
5704;SDS011;2877;48.238;11.160;2022-12-17T01:27:20;20.43;;;12.90;;
5704;SDS011;2877;48.238;11.160;2022-12-17T01:30:04;20.57;;;11.70;;
5704;SDS011;2877;48.238;11.160;2022-12-17T01:32:50;24.50;;;13.00;;
5704;SDS011;2877;48.238;11.160;2022-12-17T01:35:34;19.90;;;12.33;;
5704;SDS011;2877;48.238;11.160;2022-12-17T01:38:18;22.87;;;12.33;;
5704;SDS011;2877;48.238;11.160;2022-12-17T01:41:03;22.93;;;13.17;;
5704;SDS011;2877;48.238;11.160;2022-12-17T01:43:48;18.67;;;10.20;;
5704;SDS011;2877;48.238;11.160;2022-12-17T01:46:34;22.43;;;13.30;;
5704;SDS011;2877;48.238;11.160;2022-12-17T01:49:22;21.73;;;13.07;;
5704;SDS011;2877;48.238;11.160;2022-12-17T01:52:08;23.30;;;13.20;;
5704;SDS011;2877;48.238;11.160;2022-12-17T01:54:56;23.70;;;11.43;;
5704;SDS011;2877;48.238;11.160;2022-12-17T01:58:00;18.80;;;11.53;;
5704;SDS011;2877;48.238;11.160;2022-12-17T02:00:44;27.17;;;13.17;;
5704;SDS011;2877;48.238;11.160;2022-12-17T02:03:28;22.40;;;12.57;;
5704;SDS011;2877;48.238;11.160;2022-12-17T02:09:16;23.67;;;14.30;;
5704;SDS011;2877;48.238;11.160;2022-12-17T02:12:24;22.80;;;12.87;;
5704;SDS011;2877;48.238;11.160;2022-12-17T02:15:18;22.03;;;12.77;;
5704;SDS011;2877;48.238;11.160;2022-12-17T02:18:35;20.70;;;12.63;;
5704;SDS011;2877;48.238;11.160;2022-12-17T02:21:24;25.40;;;13.47;;
5704;SDS011;2877;48.238;11.160;2022-12-17T02:27:13;19.63;;;11.60;;
5704;SDS011;2877;48.238;11.160;2022-12-17T02:30:00;23.43;;;12.60;;
5704;SDS011;2877;48.238;11.160;2022-12-17T02:32:47;19.90;;;11.60;;
5704;SDS011;2877;48.238;11.160;2022-12-17T02:35:38;24.47;;;12.60;;
5704;SDS011;2877;48.238;11.160;2022-12-17T02:38:32;21.30;;;11.30;;
5704;SDS011;2877;48.238;11.160;2022-12-17T02:44:03;25.60;;;13.50;;
5704;SDS011;2877;48.238;11.160;2022-12-17T02:46:50;17.67;;;11.60;;
5704;SDS011;2877;48.238;11.160;2022-12-17T02:49:37;22.47;;;11.60;;
5704;SDS011;2877;48.238;11.160;2022-12-17T02:52:21;19.37;;;11.57;;
5704;SDS011;2877;48.238;11.160;2022-12-17T02:55:06;22.50;;;11.90;;
5704;SDS011;2877;48.238;11.160;2022-12-17T02:57:51;20.47;;;12.17;;
5704;SDS011;2877;48.238;11.160;2022-12-17T03:00:35;22.07;;;12.13;;
5704;SDS011;2877;48.238;11.160;2022-12-17T03:03:19;18.40;;;11.97;;
5704;SDS011;2877;48.238;11.160;2022-12-17T03:06:03;21.87;;;12.67;;
5704;SDS011;2877;48.238;11.160;2022-12-17T03:08:48;25.10;;;13.17;;
5704;SDS011;2877;48.238;11.160;2022-12-17T03:11:32;18.67;;;11.60;;
5704;SDS011;2877;48.238;11.160;2022-12-17T03:14:16;23.27;;;12.77;;
5704;SDS011;2877;48.238;11.160;2022-12-17T03:17:00;20.03;;;12.30;;
5704;SDS011;2877;48.238;11.160;2022-12-17T03:19:44;20.80;;;11.43;;
5704;SDS011;2877;48.238;11.160;2022-12-17T03:22:29;25.73;;;13.47;;
5704;SDS011;2877;48.238;11.160;2022-12-17T03:25:13;25.50;;;14.30;;
5704;SDS011;2877;48.238;11.160;2022-12-17T03:28:07;23.27;;;12.30;;
5704;SDS011;2877;48.238;11.160;2022-12-17T03:30:56;23.17;;;12.40;;
5704;SDS011;2877;48.238;11.160;2022-12-17T03:33:41;24.83;;;12.90;;
5704;SDS011;2877;48.238;11.160;2022-12-17T03:36:25;23.83;;;12.40;;
5704;SDS011;2877;48.238;11.160;2022-12-17T03:39:10;19.57;;;12.40;;
5704;SDS011;2877;48.238;11.160;2022-12-17T03:41:54;23.67;;;13.10;;
5704;SDS011;2877;48.238;11.160;2022-12-17T03:44:38;20.47;;;12.27;;
5704;SDS011;2877;48.238;11.160;2022-12-17T03:47:22;21.50;;;11.90;;
5704;SDS011;2877;48.238;11.160;2022-12-17T03:50:17;21.10;;;11.50;;
5704;SDS011;2877;48.238;11.160;2022-12-17T03:53:02;18.07;;;11.03;;
5704;SDS011;2877;48.238;11.160;2022-12-17T03:56:01;20.73;;;12.17;;
5704;SDS011;2877;48.238;11.160;2022-12-17T03:58:45;21.17;;;11.77;;
5704;SDS011;2877;48.238;11.160;2022-12-17T04:01:29;28.13;;;13.33;;
5704;SDS011;2877;48.238;11.160;2022-12-17T04:04:13;22.03;;;13.03;;
5704;SDS011;2877;48.238;11.160;2022-12-17T04:06:57;24.10;;;13.20;;
5704;SDS011;2877;48.238;11.160;2022-12-17T04:09:41;22.97;;;12.90;;
5704;SDS011;2877;48.238;11.160;2022-12-17T04:12:25;25.87;;;13.30;;
5704;SDS011;2877;48.238;11.160;2022-12-17T04:15:09;26.90;;;14.00;;
5704;SDS011;2877;48.238;11.160;2022-12-17T04:17:53;19.43;;;12.37;;
5704;SDS011;2877;48.238;11.160;2022-12-17T04:20:38;21.00;;;11.57;;
5704;SDS011;2877;48.238;11.160;2022-12-17T04:23:22;22.03;;;12.60;;
5704;SDS011;2877;48.238;11.160;2022-12-17T04:26:06;23.87;;;12.73;;
5704;SDS011;2877;48.238;11.160;2022-12-17T04:28:50;23.93;;;13.00;;
5704;SDS011;2877;48.238;11.160;2022-12-17T04:31:34;19.90;;;12.07;;
5704;SDS011;2877;48.238;11.160;2022-12-17T04:34:18;19.67;;;11.93;;
5704;SDS011;2877;48.238;11.160;2022-12-17T04:37:02;21.27;;;12.43;;
5704;SDS011;2877;48.238;11.160;2022-12-17T04:39:46;21.30;;;11.90;;
5704;SDS011;2877;48.238;11.160;2022-12-17T04:42:30;21.67;;;11.90;;
5704;SDS011;2877;48.238;11.160;2022-12-17T04:45:14;18.80;;;10.90;;
5704;SDS011;2877;48.238;11.160;2022-12-17T04:47:59;15.60;;;10.03;;
5704;SDS011;2877;48.238;11.160;2022-12-17T04:50:47;18.83;;;10.77;;
5704;SDS011;2877;48.238;11.160;2022-12-17T04:53:31;17.90;;;10.30;;
5704;SDS011;2877;48.238;11.160;2022-12-17T04:56:17;18.17;;;9.60;;
5704;SDS011;2877;48.238;11.160;2022-12-17T04:59:01;18.13;;;9.90;;
5704;SDS011;2877;48.238;11.160;2022-12-17T05:01:45;16.50;;;10.20;;
5704;SDS011;2877;48.238;11.160;2022-12-17T05:04:29;13.10;;;8.77;;
5704;SDS011;2877;48.238;11.160;2022-12-17T05:07:13;17.70;;;10.60;;
5704;SDS011;2877;48.238;11.160;2022-12-17T05:09:57;15.77;;;9.63;;
5704;SDS011;2877;48.238;11.160;2022-12-17T05:12:41;16.00;;;10.20;;
5704;SDS011;2877;48.238;11.160;2022-12-17T05:15:25;20.90;;;10.13;;
5704;SDS011;2877;48.238;11.160;2022-12-17T05:18:17;15.97;;;9.20;;
5704;SDS011;2877;48.238;11.160;2022-12-17T05:21:01;15.63;;;8.83;;
5704;SDS011;2877;48.238;11.160;2022-12-17T05:23:45;15.70;;;9.10;;
5704;SDS011;2877;48.238;11.160;2022-12-17T05:26:29;17.27;;;10.17;;
5704;SDS011;2877;48.238;11.160;2022-12-17T05:29:13;15.37;;;8.60;;
5704;SDS011;2877;48.238;11.160;2022-12-17T05:31:57;14.43;;;9.33;;
5704;SDS011;2877;48.238;11.160;2022-12-17T05:34:42;17.37;;;9.70;;
5704;SDS011;2877;48.238;11.160;2022-12-17T05:37:26;17.50;;;10.13;;
5704;SDS011;2877;48.238;11.160;2022-12-17T05:40:10;16.63;;;8.77;;
5704;SDS011;2877;48.238;11.160;2022-12-17T05:42:58;16.93;;;9.73;;
5704;SDS011;2877;48.238;11.160;2022-12-17T05:45:44;16.37;;;9.20;;
5704;SDS011;2877;48.238;11.160;2022-12-17T05:48:29;20.17;;;8.40;;
5704;SDS011;2877;48.238;11.160;2022-12-17T05:51:14;13.00;;;8.17;;
5704;SDS011;2877;48.238;11.160;2022-12-17T05:53:59;16.50;;;8.93;;
5704;SDS011;2877;48.238;11.160;2022-12-17T05:56:44;17.10;;;8.97;;
5704;SDS011;2877;48.238;11.160;2022-12-17T05:59:28;14.70;;;9.00;;
5704;SDS011;2877;48.238;11.160;2022-12-17T06:02:13;15.03;;;9.63;;
5704;SDS011;2877;48.238;11.160;2022-12-17T06:04:57;13.20;;;8.43;;
5704;SDS011;2877;48.238;11.160;2022-12-17T06:07:41;13.27;;;8.20;;
5704;SDS011;2877;48.238;11.160;2022-12-17T06:10:25;13.00;;;8.03;;
5704;SDS011;2877;48.238;11.160;2022-12-17T06:13:09;16.60;;;9.30;;
5704;SDS011;2877;48.238;11.160;2022-12-17T06:15:53;15.07;;;9.20;;
5704;SDS011;2877;48.238;11.160;2022-12-17T06:18:38;17.50;;;10.20;;
5704;SDS011;2877;48.238;11.160;2022-12-17T06:21:22;16.40;;;9.73;;
5704;SDS011;2877;48.238;11.160;2022-12-17T06:24:06;15.13;;;9.90;;
5704;SDS011;2877;48.238;11.160;2022-12-17T06:26:51;12.77;;;8.40;;
5704;SDS011;2877;48.238;11.160;2022-12-17T06:29:35;16.50;;;8.53;;
5704;SDS011;2877;48.238;11.160;2022-12-17T06:32:19;14.93;;;9.13;;
5704;SDS011;2877;48.238;11.160;2022-12-17T06:35:05;18.13;;;10.47;;
5704;SDS011;2877;48.238;11.160;2022-12-17T06:38:01;15.27;;;9.13;;
5704;SDS011;2877;48.238;11.160;2022-12-17T06:40:52;15.60;;;8.90;;
5704;SDS011;2877;48.238;11.160;2022-12-17T06:43:36;13.20;;;8.47;;
5704;SDS011;2877;48.238;11.160;2022-12-17T06:46:21;13.53;;;9.03;;
5704;SDS011;2877;48.238;11.160;2022-12-17T06:49:05;19.73;;;10.20;;
5704;SDS011;2877;48.238;11.160;2022-12-17T06:51:49;20.93;;;10.50;;
5704;SDS011;2877;48.238;11.160;2022-12-17T06:54:33;16.77;;;9.40;;
5704;SDS011;2877;48.238;11.160;2022-12-17T06:57:17;15.50;;;8.83;;
5704;SDS011;2877;48.238;11.160;2022-12-17T07:00:03;16.00;;;9.77;;
5704;SDS011;2877;48.238;11.160;2022-12-17T07:02:48;20.63;;;10.10;;
5704;SDS011;2877;48.238;11.160;2022-12-17T07:05:32;16.33;;;9.87;;
5704;SDS011;2877;48.238;11.160;2022-12-17T07:08:16;13.80;;;8.73;;
5704;SDS011;2877;48.238;11.160;2022-12-17T07:11:00;15.67;;;9.90;;
5704;SDS011;2877;48.238;11.160;2022-12-17T07:13:45;17.77;;;10.67;;
5704;SDS011;2877;48.238;11.160;2022-12-17T07:16:29;18.23;;;10.53;;
5704;SDS011;2877;48.238;11.160;2022-12-17T07:19:13;29.10;;;14.10;;
5704;SDS011;2877;48.238;11.160;2022-12-17T07:21:57;26.20;;;13.50;;
5704;SDS011;2877;48.238;11.160;2022-12-17T07:24:42;22.67;;;13.20;;
5704;SDS011;2877;48.238;11.160;2022-12-17T07:27:26;19.77;;;11.43;;
5704;SDS011;2877;48.238;11.160;2022-12-17T07:30:10;16.73;;;10.70;;
5704;SDS011;2877;48.238;11.160;2022-12-17T07:32:59;17.90;;;10.43;;
5704;SDS011;2877;48.238;11.160;2022-12-17T07:35:44;18.20;;;10.70;;
5704;SDS011;2877;48.238;11.160;2022-12-17T07:38:28;18.07;;;10.23;;
5704;SDS011;2877;48.238;11.160;2022-12-17T07:41:12;17.93;;;10.73;;
5704;SDS011;2877;48.238;11.160;2022-12-17T07:43:56;18.17;;;10.03;;
5704;SDS011;2877;48.238;11.160;2022-12-17T07:46:40;15.97;;;9.50;;
5704;SDS011;2877;48.238;11.160;2022-12-17T07:49:24;14.83;;;9.00;;
5704;SDS011;2877;48.238;11.160;2022-12-17T07:52:09;15.60;;;9.00;;
5704;SDS011;2877;48.238;11.160;2022-12-17T07:54:53;17.23;;;10.20;;
5704;SDS011;2877;48.238;11.160;2022-12-17T07:57:57;18.40;;;9.63;;
5704;SDS011;2877;48.238;11.160;2022-12-17T08:00:43;15.07;;;8.70;;
5704;SDS011;2877;48.238;11.160;2022-12-17T08:03:27;16.77;;;9.10;;
5704;SDS011;2877;48.238;11.160;2022-12-17T08:06:12;17.57;;;9.90;;
5704;SDS011;2877;48.238;11.160;2022-12-17T08:08:56;18.17;;;9.50;;
5704;SDS011;2877;48.238;11.160;2022-12-17T08:11:40;38.33;;;16.10;;
5704;SDS011;2877;48.238;11.160;2022-12-17T08:14:24;18.00;;;10.73;;
5704;SDS011;2877;48.238;11.160;2022-12-17T08:17:08;17.90;;;10.37;;
5704;SDS011;2877;48.238;11.160;2022-12-17T08:19:52;17.13;;;9.13;;
5704;SDS011;2877;48.238;11.160;2022-12-17T08:22:36;18.63;;;10.40;;
5704;SDS011;2877;48.238;11.160;2022-12-17T08:25:21;23.40;;;10.53;;
5704;SDS011;2877;48.238;11.160;2022-12-17T08:28:06;20.47;;;10.70;;
5704;SDS011;2877;48.238;11.160;2022-12-17T08:30:51;17.00;;;9.83;;
5704;SDS011;2877;48.238;11.160;2022-12-17T08:33:35;20.10;;;10.70;;
5704;SDS011;2877;48.238;11.160;2022-12-17T08:36:19;19.87;;;11.50;;
5704;SDS011;2877;48.238;11.160;2022-12-17T08:39:03;17.23;;;10.27;;
5704;SDS011;2877;48.238;11.160;2022-12-17T08:41:47;68.57;;;26.53;;
5704;SDS011;2877;48.238;11.160;2022-12-17T08:44:32;22.00;;;12.57;;
5704;SDS011;2877;48.238;11.160;2022-12-17T08:47:16;20.43;;;11.20;;
5704;SDS011;2877;48.238;11.160;2022-12-17T08:50:00;23.17;;;12.33;;
5704;SDS011;2877;48.238;11.160;2022-12-17T08:52:45;18.93;;;11.70;;
5704;SDS011;2877;48.238;11.160;2022-12-17T08:55:29;19.63;;;11.80;;
5704;SDS011;2877;48.238;11.160;2022-12-17T08:58:13;20.63;;;12.70;;
5704;SDS011;2877;48.238;11.160;2022-12-17T09:00:57;21.13;;;12.20;;
5704;SDS011;2877;48.238;11.160;2022-12-17T09:03:44;20.53;;;12.27;;
5704;SDS011;2877;48.238;11.160;2022-12-17T09:06:29;21.03;;;11.87;;
5704;SDS011;2877;48.238;11.160;2022-12-17T09:09:13;20.67;;;11.80;;
5704;SDS011;2877;48.238;11.160;2022-12-17T09:11:57;18.50;;;11.00;;
5704;SDS011;2877;48.238;11.160;2022-12-17T09:14:42;17.30;;;10.77;;
5704;SDS011;2877;48.238;11.160;2022-12-17T09:17:26;16.97;;;11.37;;
5704;SDS011;2877;48.238;11.160;2022-12-17T09:20:10;28.10;;;13.73;;
5704;SDS011;2877;48.238;11.160;2022-12-17T09:23:08;25.83;;;12.70;;
5704;SDS011;2877;48.238;11.160;2022-12-17T09:25:53;23.40;;;13.63;;
5704;SDS011;2877;48.238;11.160;2022-12-17T09:28:38;21.37;;;13.77;;
5704;SDS011;2877;48.238;11.160;2022-12-17T09:31:22;20.60;;;11.90;;
5704;SDS011;2877;48.238;11.160;2022-12-17T09:34:06;20.90;;;11.13;;
5704;SDS011;2877;48.238;11.160;2022-12-17T09:36:50;22.90;;;12.77;;
5704;SDS011;2877;48.238;11.160;2022-12-17T09:39:34;22.57;;;14.73;;
5704;SDS011;2877;48.238;11.160;2022-12-17T09:42:20;25.70;;;14.43;;
5704;SDS011;2877;48.238;11.160;2022-12-17T09:45:39;28.30;;;14.17;;
5704;SDS011;2877;48.238;11.160;2022-12-17T09:51:47;22.37;;;12.93;;
5704;SDS011;2877;48.238;11.160;2022-12-17T09:54:38;26.50;;;14.37;;
5704;SDS011;2877;48.238;11.160;2022-12-17T09:57:31;19.70;;;11.63;;
5704;SDS011;2877;48.238;11.160;2022-12-17T10:00:19;24.73;;;14.00;;
5704;SDS011;2877;48.238;11.160;2022-12-17T10:03:13;26.10;;;14.90;;
5704;SDS011;2877;48.238;11.160;2022-12-17T10:06:10;30.73;;;16.33;;
5704;SDS011;2877;48.238;11.160;2022-12-17T10:08:59;24.93;;;13.67;;
5704;SDS011;2877;48.238;11.160;2022-12-17T10:11:46;28.33;;;15.27;;
5704;SDS011;2877;48.238;11.160;2022-12-17T10:14:30;20.07;;;13.00;;
5704;SDS011;2877;48.238;11.160;2022-12-17T10:17:15;26.97;;;15.17;;
5704;SDS011;2877;48.238;11.160;2022-12-17T10:20:13;25.23;;;14.17;;
5704;SDS011;2877;48.238;11.160;2022-12-17T10:23:03;20.43;;;12.40;;
5704;SDS011;2877;48.238;11.160;2022-12-17T10:25:51;23.37;;;15.50;;
5704;SDS011;2877;48.238;11.160;2022-12-17T10:28:36;21.57;;;12.27;;
5704;SDS011;2877;48.238;11.160;2022-12-17T10:31:21;18.90;;;11.30;;
5704;SDS011;2877;48.238;11.160;2022-12-17T10:34:15;24.03;;;13.70;;
5704;SDS011;2877;48.238;11.160;2022-12-17T10:37:02;20.17;;;12.00;;
5704;SDS011;2877;48.238;11.160;2022-12-17T10:39:55;25.83;;;12.97;;
5704;SDS011;2877;48.238;11.160;2022-12-17T10:42:41;23.53;;;12.20;;
5704;SDS011;2877;48.238;11.160;2022-12-17T10:45:27;20.37;;;13.40;;
5704;SDS011;2877;48.238;11.160;2022-12-17T10:48:19;22.87;;;12.63;;
5704;SDS011;2877;48.238;11.160;2022-12-17T10:51:16;26.60;;;14.07;;
5704;SDS011;2877;48.238;11.160;2022-12-17T10:54:09;19.77;;;12.20;;
5704;SDS011;2877;48.238;11.160;2022-12-17T10:57:06;23.37;;;13.03;;
5704;SDS011;2877;48.238;11.160;2022-12-17T10:59:50;21.50;;;13.00;;
5704;SDS011;2877;48.238;11.160;2022-12-17T11:02:35;20.77;;;12.43;;
5704;SDS011;2877;48.238;11.160;2022-12-17T11:05:26;26.27;;;13.30;;
5704;SDS011;2877;48.238;11.160;2022-12-17T11:08:14;20.10;;;12.00;;
5704;SDS011;2877;48.238;11.160;2022-12-17T11:11:04;21.30;;;12.70;;
5704;SDS011;2877;48.238;11.160;2022-12-17T11:13:52;22.57;;;13.13;;
5704;SDS011;2877;48.238;11.160;2022-12-17T11:16:48;23.40;;;12.10;;
5704;SDS011;2877;48.238;11.160;2022-12-17T11:22:43;19.87;;;12.30;;
5704;SDS011;2877;48.238;11.160;2022-12-17T11:25:54;21.00;;;11.60;;
5704;SDS011;2877;48.238;11.160;2022-12-17T11:28:42;18.97;;;11.23;;
5704;SDS011;2877;48.238;11.160;2022-12-17T11:37:42;21.10;;;12.90;;
5704;SDS011;2877;48.238;11.160;2022-12-17T11:40:40;30.37;;;17.47;;
5704;SDS011;2877;48.238;11.160;2022-12-17T11:49:44;27.20;;;13.60;;
5704;SDS011;2877;48.238;11.160;2022-12-17T11:52:51;22.53;;;13.30;;
5704;SDS011;2877;48.238;11.160;2022-12-17T11:56:04;20.33;;;12.80;;
5704;SDS011;2877;48.238;11.160;2022-12-17T11:59:13;25.33;;;13.57;;
5704;SDS011;2877;48.238;11.160;2022-12-17T12:07:53;25.30;;;14.00;;
5704;SDS011;2877;48.238;11.160;2022-12-17T12:13:57;27.93;;;15.97;;
5704;SDS011;2877;48.238;11.160;2022-12-17T12:17:02;34.07;;;18.27;;
5704;SDS011;2877;48.238;11.160;2022-12-17T12:26:13;24.50;;;14.00;;
5704;SDS011;2877;48.238;11.160;2022-12-17T12:34:33;22.83;;;14.10;;
5704;SDS011;2877;48.238;11.160;2022-12-17T12:37:20;25.03;;;15.03;;
5704;SDS011;2877;48.238;11.160;2022-12-17T12:43:10;26.77;;;14.50;;
5704;SDS011;2877;48.238;11.160;2022-12-17T12:46:18;21.50;;;12.17;;
5704;SDS011;2877;48.238;11.160;2022-12-17T12:50:01;20.07;;;12.17;;
5704;SDS011;2877;48.238;11.160;2022-12-17T12:52:41;18.83;;;10.60;;
5704;SDS011;2877;48.238;11.160;2022-12-17T12:55:47;21.00;;;11.50;;
5704;SDS011;2877;48.238;11.160;2022-12-17T12:58:31;18.87;;;10.43;;
5704;SDS011;2877;48.238;11.160;2022-12-17T13:01:17;19.37;;;10.90;;
5704;SDS011;2877;48.238;11.160;2022-12-17T13:04:14;21.27;;;11.47;;
5704;SDS011;2877;48.238;11.160;2022-12-17T13:07:21;21.03;;;12.63;;
5704;SDS011;2877;48.238;11.160;2022-12-17T13:09:55;20.87;;;12.20;;
5704;SDS011;2877;48.238;11.160;2022-12-17T13:12:23;20.40;;;11.73;;
5704;SDS011;2877;48.238;11.160;2022-12-17T13:17:40;19.03;;;11.70;;
5704;SDS011;2877;48.238;11.160;2022-12-17T13:20:24;21.50;;;13.50;;
5704;SDS011;2877;48.238;11.160;2022-12-17T13:22:52;21.23;;;12.93;;
5704;SDS011;2877;48.238;11.160;2022-12-17T13:25:29;22.47;;;13.47;;
5704;SDS011;2877;48.238;11.160;2022-12-17T13:27:55;24.63;;;12.77;;
5704;SDS011;2877;48.238;11.160;2022-12-17T13:30:22;25.57;;;12.77;;
5704;SDS011;2877;48.238;11.160;2022-12-17T13:40:47;22.97;;;12.73;;
5704;SDS011;2877;48.238;11.160;2022-12-17T13:43:44;24.40;;;13.13;;
5704;SDS011;2877;48.238;11.160;2022-12-17T13:46:19;24.27;;;13.40;;
5704;SDS011;2877;48.238;11.160;2022-12-17T13:49:00;24.50;;;13.03;;
5704;SDS011;2877;48.238;11.160;2022-12-17T13:51:28;24.23;;;13.80;;
5704;SDS011;2877;48.238;11.160;2022-12-17T13:53:57;24.57;;;14.30;;
5704;SDS011;2877;48.238;11.160;2022-12-17T13:56:26;27.30;;;14.73;;
5704;SDS011;2877;48.238;11.160;2022-12-17T13:58:57;30.13;;;14.80;;
5704;SDS011;2877;48.238;11.160;2022-12-17T14:01:26;24.93;;;14.40;;
5704;SDS011;2877;48.238;11.160;2022-12-17T14:03:53;21.20;;;12.80;;
5704;SDS011;2877;48.238;11.160;2022-12-17T14:06:20;31.90;;;14.80;;
5704;SDS011;2877;48.238;11.160;2022-12-17T14:08:48;28.40;;;14.90;;
5704;SDS011;2877;48.238;11.160;2022-12-17T14:11:16;25.97;;;14.77;;
5704;SDS011;2877;48.238;11.160;2022-12-17T14:14:01;23.23;;;13.43;;
5704;SDS011;2877;48.238;11.160;2022-12-17T14:16:27;25.90;;;14.60;;
5704;SDS011;2877;48.238;11.160;2022-12-17T14:18:54;26.47;;;14.13;;
5704;SDS011;2877;48.238;11.160;2022-12-17T14:21:21;30.67;;;16.13;;
5704;SDS011;2877;48.238;11.160;2022-12-17T14:23:49;29.93;;;16.57;;
5704;SDS011;2877;48.238;11.160;2022-12-17T14:26:16;25.10;;;13.90;;
5704;SDS011;2877;48.238;11.160;2022-12-17T14:28:46;24.60;;;13.90;;
5704;SDS011;2877;48.238;11.160;2022-12-17T14:33:39;22.17;;;13.00;;
5704;SDS011;2877;48.238;11.160;2022-12-17T14:36:07;21.73;;;13.47;;
5704;SDS011;2877;48.238;11.160;2022-12-17T14:38:39;27.53;;;13.30;;
5704;SDS011;2877;48.238;11.160;2022-12-17T14:41:15;23.00;;;13.70;;
5704;SDS011;2877;48.238;11.160;2022-12-17T14:44:00;21.47;;;12.70;;
5704;SDS011;2877;48.238;11.160;2022-12-17T14:46:27;25.00;;;13.83;;
5704;SDS011;2877;48.238;11.160;2022-12-17T14:48:55;23.77;;;13.90;;
5704;SDS011;2877;48.238;11.160;2022-12-17T14:56:49;25.37;;;13.70;;
5704;SDS011;2877;48.238;11.160;2022-12-17T14:59:35;27.20;;;15.53;;
5704;SDS011;2877;48.238;11.160;2022-12-17T15:05:00;29.17;;;16.30;;
5704;SDS011;2877;48.238;11.160;2022-12-17T15:07:27;30.03;;;15.70;;
5704;SDS011;2877;48.238;11.160;2022-12-17T15:09:54;28.90;;;14.60;;
5704;SDS011;2877;48.238;11.160;2022-12-17T15:12:21;33.20;;;17.70;;
5704;SDS011;2877;48.238;11.160;2022-12-17T15:14:48;53.07;;;25.80;;
5704;SDS011;2877;48.238;11.160;2022-12-17T15:17:14;34.80;;;17.60;;
5704;SDS011;2877;48.238;11.160;2022-12-17T15:19:40;32.60;;;17.60;;
5704;SDS011;2877;48.238;11.160;2022-12-17T15:22:09;31.57;;;18.03;;
5704;SDS011;2877;48.238;11.160;2022-12-17T15:24:40;29.10;;;15.90;;
5704;SDS011;2877;48.238;11.160;2022-12-17T15:27:08;27.57;;;16.37;;
5704;SDS011;2877;48.238;11.160;2022-12-17T15:29:36;25.83;;;14.90;;
5704;SDS011;2877;48.238;11.160;2022-12-17T15:32:01;25.53;;;14.40;;
5704;SDS011;2877;48.238;11.160;2022-12-17T15:34:28;26.03;;;14.10;;
5704;SDS011;2877;48.238;11.160;2022-12-17T15:36:53;26.50;;;15.33;;
5704;SDS011;2877;48.238;11.160;2022-12-17T15:39:19;27.97;;;14.20;;
5704;SDS011;2877;48.238;11.160;2022-12-17T15:41:44;26.43;;;14.83;;
5704;SDS011;2877;48.238;11.160;2022-12-17T15:44:29;24.87;;;13.93;;
5704;SDS011;2877;48.238;11.160;2022-12-17T15:46:57;27.70;;;14.50;;
5704;SDS011;2877;48.238;11.160;2022-12-17T15:49:23;31.20;;;14.80;;
5704;SDS011;2877;48.238;11.160;2022-12-17T15:51:48;24.90;;;13.97;;
5704;SDS011;2877;48.238;11.160;2022-12-17T15:54:14;27.03;;;15.47;;
5704;SDS011;2877;48.238;11.160;2022-12-17T15:56:39;29.30;;;15.43;;
5704;SDS011;2877;48.238;11.160;2022-12-17T15:59:05;29.37;;;16.43;;
5704;SDS011;2877;48.238;11.160;2022-12-17T16:01:30;24.00;;;13.20;;
5704;SDS011;2877;48.238;11.160;2022-12-17T16:03:56;26.10;;;14.60;;
5704;SDS011;2877;48.238;11.160;2022-12-17T16:06:22;23.20;;;13.77;;
5704;SDS011;2877;48.238;11.160;2022-12-17T16:08:48;22.73;;;13.27;;
5704;SDS011;2877;48.238;11.160;2022-12-17T16:11:14;25.43;;;14.67;;
5704;SDS011;2877;48.238;11.160;2022-12-17T16:13:40;27.20;;;14.73;;
5704;SDS011;2877;48.238;11.160;2022-12-17T16:16:06;30.03;;;15.43;;
5704;SDS011;2877;48.238;11.160;2022-12-17T16:18:32;26.63;;;13.33;;
5704;SDS011;2877;48.238;11.160;2022-12-17T16:21:01;27.27;;;15.47;;
5704;SDS011;2877;48.238;11.160;2022-12-17T16:23:28;23.97;;;13.57;;
5704;SDS011;2877;48.238;11.160;2022-12-17T16:25:54;28.47;;;14.03;;
5704;SDS011;2877;48.238;11.160;2022-12-17T16:28:21;27.20;;;14.10;;
5704;SDS011;2877;48.238;11.160;2022-12-17T16:33:33;23.23;;;13.33;;
5704;SDS011;2877;48.238;11.160;2022-12-17T16:36:00;28.33;;;14.40;;
5704;SDS011;2877;48.238;11.160;2022-12-17T16:38:26;25.70;;;14.53;;
5704;SDS011;2877;48.238;11.160;2022-12-17T16:40:55;32.67;;;15.40;;
5704;SDS011;2877;48.238;11.160;2022-12-17T16:43:22;27.33;;;15.07;;
5704;SDS011;2877;48.238;11.160;2022-12-17T16:45:49;24.80;;;13.40;;
5704;SDS011;2877;48.238;11.160;2022-12-17T16:48:16;29.93;;;14.90;;
5704;SDS011;2877;48.238;11.160;2022-12-17T16:50:43;24.87;;;13.57;;
5704;SDS011;2877;48.238;11.160;2022-12-17T16:53:09;25.73;;;14.30;;
5704;SDS011;2877;48.238;11.160;2022-12-17T16:55:38;30.07;;;15.17;;
5704;SDS011;2877;48.238;11.160;2022-12-17T16:58:05;26.23;;;14.90;;
5704;SDS011;2877;48.238;11.160;2022-12-17T17:00:32;30.40;;;15.50;;
5704;SDS011;2877;48.238;11.160;2022-12-17T17:02:58;36.00;;;16.60;;
5704;SDS011;2877;48.238;11.160;2022-12-17T17:05:24;31.03;;;17.70;;
5704;SDS011;2877;48.238;11.160;2022-12-17T17:07:49;33.90;;;17.20;;
5704;SDS011;2877;48.238;11.160;2022-12-17T17:10:16;30.60;;;16.30;;
5704;SDS011;2877;48.238;11.160;2022-12-17T17:12:41;33.37;;;17.80;;
5704;SDS011;2877;48.238;11.160;2022-12-17T17:15:07;34.40;;;17.03;;
5704;SDS011;2877;48.238;11.160;2022-12-17T17:17:33;39.53;;;19.00;;
5704;SDS011;2877;48.238;11.160;2022-12-17T17:19:58;33.90;;;17.80;;
5704;SDS011;2877;48.238;11.160;2022-12-17T17:22:24;33.10;;;17.27;;